Time;durP1;ratioP1;P1;durP2;ratioP2;P2;SDS_P1;SDS_P2;PMS_P1;PMS_P2;Temp;Humidity;BMP_temperature;BMP_pressure;BME280_temperature;BME280_humidity;BME280_pressure;Samples;Min_cycle;Max_cycle;Signal;HPM_P1;HPM_P2
2021/09/01 00:03:10;;;;;;;36.83;19.37;;;16.90;99.90;;;;;;8221950;28;20895;-78
2021/09/01 00:07:10;;;;;;;31.27;17.57;;;17.00;99.90;;;;;;8218291;28;20677;-76
2021/09/01 00:11:11;;;;;;;28.03;17.90;;;17.00;99.90;;;;;;8230863;28;20192;-78
2021/09/01 00:15:12;;;;;;;29.77;17.07;;;17.00;99.90;;;;;;8221438;28;20205;-78
2021/09/01 00:19:13;;;;;;;30.13;16.70;;;17.00;99.90;;;;;;8226935;28;20203;-78
2021/09/01 00:23:15;;;;;;;29.83;18.03;;;17.00;99.90;;;;;;8221314;28;20482;-78
2021/09/01 00:27:15;;;;;;;24.73;15.67;;;17.00;99.90;;;;;;8224920;28;20179;-80
2021/09/01 00:31:18;;;;;;;30.63;16.17;;;17.00;99.90;;;;;;8222100;28;20531;-79
2021/09/01 00:35:19;;;;;;;34.23;17.57;;;16.90;99.90;;;;;;8222455;28;20177;-78
2021/09/01 00:39:19;;;;;;;33.13;17.73;;;17.00;99.90;;;;;;8222801;28;20484;-78
2021/09/01 00:43:22;;;;;;;33.03;16.03;;;17.00;99.90;;;;;;8221983;28;20229;-79
2021/09/01 01:31:45;;;;;;;28.13;15.17;;;17.00;99.90;;;;;;8279094;28;20498;-80
2021/09/01 01:35:47;;;;;;;27.60;16.10;;;17.00;99.90;;;;;;8307081;28;20874;-78
2021/09/01 01:39:48;;;;;;;26.00;15.77;;;17.10;99.90;;;;;;8309011;28;20188;-78
2021/09/01 01:43:49;;;;;;;36.53;15.90;;;17.00;99.90;;;;;;8322135;28;20478;-79
2021/09/01 01:47:51;;;;;;;25.73;15.30;;;17.00;99.90;;;;;;8312464;28;20649;-78
2021/09/01 01:51:51;;;;;;;26.80;15.43;;;17.00;99.90;;;;;;8311662;28;20443;-78
2021/09/01 01:55:52;;;;;;;28.13;16.20;;;17.00;99.90;;;;;;8310963;28;20580;-78
2021/09/01 01:59:53;;;;;;;27.30;15.20;;;17.00;99.90;;;;;;8311917;28;20197;-78
2021/09/01 02:03:53;;;;;;;33.33;17.53;;;17.00;99.90;;;;;;8314735;28;20217;-78
2021/09/01 02:07:54;;;;;;;33.30;17.00;;;17.00;99.90;;;;;;8316625;28;20610;-79
2021/09/01 02:11:54;;;;;;;33.93;18.00;;;17.00;99.90;;;;;;8315756;28;20222;-78
2021/09/01 02:15:55;;;;;;;38.93;16.87;;;17.00;99.90;;;;;;8307802;28;20189;-78
2021/09/01 02:19:57;;;;;;;30.17;17.30;;;17.00;99.90;;;;;;8310804;28;20213;-78
2021/09/01 02:23:57;;;;;;;29.47;15.87;;;17.00;99.90;;;;;;8316084;28;20238;-79
2021/09/01 02:27:58;;;;;;;36.73;17.27;;;17.00;99.90;;;;;;8306441;28;20640;-78
2021/09/01 02:31:58;;;;;;;34.30;18.30;;;16.90;99.90;;;;;;8309032;28;20220;-79
2021/09/01 02:35:59;;;;;;;32.00;19.37;;;16.90;99.90;;;;;;8311321;28;20182;-79
2021/09/01 02:40:03;;;;;;;33.87;19.10;;;16.90;99.90;;;;;;8308584;28;20694;-80
2021/09/01 02:44:04;;;;;;;37.40;17.77;;;17.00;99.90;;;;;;8307916;28;20837;-79
2021/09/01 02:48:04;;;;;;;37.63;20.70;;;17.00;99.90;;;;;;8313367;28;20509;-79
2021/09/01 02:52:05;;;;;;;30.70;18.67;;;16.90;99.90;;;;;;8309812;28;20196;-77
2021/09/01 02:56:06;;;;;;;52.20;22.17;;;17.00;99.90;;;;;;8309070;28;20276;-78
2021/09/01 03:00:08;;;;;;;40.53;19.50;;;16.90;99.90;;;;;;8309583;28;20455;-79
2021/09/01 03:04:09;;;;;;;46.50;23.93;;;16.90;99.90;;;;;;8311324;28;20198;-79
2021/09/01 03:08:10;;;;;;;45.70;23.33;;;16.90;99.90;;;;;;8313932;28;20471;-79
2021/09/01 03:12:10;;;;;;;36.20;18.57;;;16.90;99.90;;;;;;8313165;28;20192;-81
2021/09/01 03:16:11;;;;;;;59.80;22.43;;;16.90;99.90;;;;;;8311963;28;20265;-80
2021/09/01 03:20:12;;;;;;;39.70;21.80;;;16.80;99.90;;;;;;8310812;28;20600;-78
2021/09/01 03:24:12;;;;;;;41.10;20.23;;;16.90;99.90;;;;;;8306309;28;20307;-78
2021/09/01 03:28:13;;;;;;;35.30;20.03;;;16.90;99.90;;;;;;8326668;28;20180;-78
2021/09/01 03:32:14;;;;;;;38.47;19.20;;;16.80;99.90;;;;;;8311914;28;20234;-78
2021/09/01 03:36:14;;;;;;;47.43;19.90;;;16.80;99.90;;;;;;8312673;28;20395;-79
2021/09/01 03:40:15;;;;;;;38.73;19.93;;;16.80;99.90;;;;;;8307863;28;20184;-79
2021/09/01 03:44:16;;;;;;;46.03;19.83;;;16.80;99.90;;;;;;8305694;28;20290;-80
2021/09/01 03:48:16;;;;;;;41.50;19.20;;;16.80;99.90;;;;;;8312145;28;20199;-78
2021/09/01 03:52:17;;;;;;;39.80;19.27;;;16.80;99.90;;;;;;8315640;28;20711;-78
2021/09/01 03:56:17;;;;;;;41.50;21.03;;;16.80;99.90;;;;;;8320423;28;20184;-78
2021/09/01 04:00:18;;;;;;;45.10;22.23;;;16.70;99.90;;;;;;8319109;28;20188;-81
2021/09/01 04:04:19;;;;;;;40.57;23.23;;;16.80;99.90;;;;;;8313914;28;20219;-78
2021/09/01 04:08:19;;;;;;;38.43;18.47;;;16.70;99.90;;;;;;8315308;28;20188;-78
2021/09/01 04:12:20;;;;;;;40.50;19.07;;;16.70;99.90;;;;;;8311107;28;20216;-78
2021/09/01 04:16:21;;;;;;;56.70;21.80;;;16.80;99.90;;;;;;8313945;28;20644;-78
2021/09/01 04:20:21;;;;;;;42.77;21.30;;;16.80;99.90;;;;;;8321691;28;20187;-77
2021/09/01 04:24:22;;;;;;;43.97;19.43;;;16.80;99.90;;;;;;8311603;28;20206;-76
2021/09/01 04:28:22;;;;;;;46.77;20.57;;;16.80;99.90;;;;;;8315204;28;20195;-78
2021/09/01 04:32:23;;;;;;;35.47;18.67;;;16.80;99.90;;;;;;8310680;28;20236;-79
2021/09/01 04:36:24;;;;;;;41.27;17.80;;;16.80;99.90;;;;;;8310511;28;20192;-78
2021/09/01 04:40:24;;;;;;;31.17;18.53;;;16.80;99.90;;;;;;8315621;28;20191;-80
2021/09/01 04:44:25;;;;;;;27.97;17.67;;;16.80;99.90;;;;;;8313714;28;20203;-78
2021/09/01 04:48:26;;;;;;;31.73;17.17;;;16.80;99.90;;;;;;8316318;28;20246;-77
2021/09/01 04:52:27;;;;;;;31.27;16.47;;;16.70;99.90;;;;;;8321193;28;20554;-79
2021/09/01 04:56:27;;;;;;;32.67;16.27;;;16.70;99.90;;;;;;8311032;28;20266;-79
2021/09/01 05:00:28;;;;;;;26.47;15.77;;;16.80;99.90;;;;;;8313399;28;20204;-78
2021/09/01 05:04:29;;;;;;;35.83;17.00;;;16.70;99.90;;;;;;8319876;28;20215;-78
2021/09/01 05:08:29;;;;;;;37.50;16.07;;;16.70;99.90;;;;;;8320194;28;20207;-78
2021/09/01 05:12:30;;;;;;;31.00;16.60;;;16.70;99.90;;;;;;8313343;28;20677;-77
2021/09/01 05:16:30;;;;;;;29.50;15.13;;;16.70;99.90;;;;;;8311363;28;20200;-85
2021/09/01 05:20:37;;;;;;;26.13;13.97;;;16.70;99.90;;;;;;8319809;28;20554;-78
2021/09/01 05:24:54;;;;;;;29.83;14.40;;;16.70;99.90;;;;;;8314527;28;20210;-79
2021/09/01 05:28:54;;;;;;;25.80;14.37;;;16.80;99.90;;;;;;8318524;28;20949;-78
2021/09/01 05:32:59;;;;;;;30.97;14.03;;;16.70;99.90;;;;;;8311373;28;20477;-78
2021/09/01 05:37:00;;;;;;;24.60;13.77;;;16.80;99.90;;;;;;8320795;28;20188;-79
2021/09/01 05:41:02;;;;;;;27.33;12.90;;;16.80;99.90;;;;;;8308115;28;20475;-80
2021/09/01 05:45:04;;;;;;;26.80;14.03;;;16.80;99.90;;;;;;8311586;28;20192;-78
2021/09/01 05:49:05;;;;;;;28.10;11.83;;;16.80;99.90;;;;;;8317669;28;20447;-79
2021/09/01 05:53:06;;;;;;;26.30;11.90;;;16.90;99.90;;;;;;8313866;28;20448;-80
2021/09/01 05:57:14;;;;;;;18.63;12.10;;;16.90;99.90;;;;;;8314621;28;20193;-78
2021/09/01 06:01:15;;;;;;;23.50;11.90;;;17.00;99.90;;;;;;8313147;28;20215;-81
2021/09/01 06:05:17;;;;;;;21.13;11.63;;;16.90;99.90;;;;;;8308620;28;20553;-81
2021/09/01 06:09:19;;;;;;;22.70;11.33;;;17.00;99.90;;;;;;8313419;28;20508;-78
2021/09/01 06:13:19;;;;;;;27.37;12.60;;;17.00;99.90;;;;;;8301924;28;20455;-83
2021/09/01 06:17:20;;;;;;;29.13;12.20;;;17.10;99.90;;;;;;8310664;28;20450;-86
2021/09/01 06:21:21;;;;;;;24.30;13.20;;;17.10;99.90;;;;;;8307826;28;20217;-76
2021/09/01 06:25:22;;;;;;;22.83;11.70;;;17.10;99.90;;;;;;8310648;28;20500;-81
2021/09/01 06:29:23;;;;;;;20.20;12.00;;;17.20;99.90;;;;;;8318023;28;20277;-79
2021/09/01 06:33:23;;;;;;;25.10;11.47;;;17.30;99.90;;;;;;8309344;28;20476;-78
2021/09/01 06:37:24;;;;;;;23.43;13.93;;;17.30;99.90;;;;;;8315234;28;20193;-80
2021/09/01 06:41:25;;;;;;;23.23;13.73;;;17.40;99.90;;;;;;8309819;28;20202;-79
2021/09/01 06:45:25;;;;;;;26.70;15.13;;;17.50;99.90;;;;;;8319494;28;20213;-79
2021/09/01 06:49:26;;;;;;;29.57;13.77;;;17.60;99.90;;;;;;8317118;28;20210;-82
2021/09/01 06:53:26;;;;;;;22.90;12.67;;;17.60;99.90;;;;;;8312105;28;20203;-81
2021/09/01 06:57:27;;;;;;;24.23;15.33;;;17.70;99.90;;;;;;8318480;28;20739;-79
2021/09/01 07:01:28;;;;;;;26.03;15.20;;;17.80;99.90;;;;;;8316307;28;20274;-81
2021/09/01 07:05:31;;;;;;;33.10;15.87;;;17.80;99.90;;;;;;8318372;28;20217;-80
2021/09/01 07:09:32;;;;;;;41.00;17.97;;;17.90;99.90;;;;;;8313948;28;20181;-83
2021/09/01 07:13:33;;;;;;;39.70;18.90;;;18.00;99.90;;;;;;8310466;28;20958;-81
2021/09/01 07:17:33;;;;;;;40.87;20.57;;;18.10;99.90;;;;;;8321603;28;20210;-81
2021/09/01 07:21:34;;;;;;;44.13;20.60;;;18.20;99.90;;;;;;8331654;28;20205;-79
2021/09/01 07:25:36;;;;;;;45.00;22.70;;;18.20;99.90;;;;;;8326167;28;20201;-78
2021/09/01 07:29:37;;;;;;;33.70;19.60;;;18.40;99.90;;;;;;8325484;28;20193;-79
2021/09/01 07:33:37;;;;;;;38.40;21.73;;;18.40;99.90;;;;;;8330603;28;20481;-80
2021/09/01 07:37:43;;;;;;;39.03;21.43;;;18.50;99.90;;;;;;8323717;28;20191;-81
2021/09/01 07:41:44;;;;;;;35.03;20.07;;;18.50;99.90;;;;;;8331982;28;20404;-79
2021/09/01 07:45:45;;;;;;;39.13;21.30;;;18.60;99.90;;;;;;8321414;28;20545;-80
2021/09/01 07:49:47;;;;;;;44.63;21.00;;;18.70;99.90;;;;;;8320783;28;20191;-80
2021/09/01 07:53:47;;;;;;;51.73;24.37;;;18.80;99.90;;;;;;8320508;28;21220;-79
2021/09/01 07:57:48;;;;;;;53.63;25.07;;;19.00;99.90;;;;;;8321049;28;20439;-82
2021/09/01 08:01:49;;;;;;;39.37;20.20;;;19.00;99.90;;;;;;8319080;28;20223;-81
2021/09/01 08:05:49;;;;;;;39.27;22.90;;;19.20;99.90;;;;;;8320817;28;20196;-79
2021/09/01 08:09:50;;;;;;;42.07;23.93;;;19.20;99.90;;;;;;8320227;28;20643;-78
2021/09/01 08:13:51;;;;;;;46.63;24.00;;;19.20;99.90;;;;;;8322616;28;20184;-79
2021/09/01 08:17:51;;;;;;;49.63;23.67;;;19.20;99.90;;;;;;8321383;28;20319;-82
2021/09/01 08:21:52;;;;;;;51.90;22.80;;;19.10;99.90;;;;;;8319767;28;20287;-81
2021/09/01 08:25:52;;;;;;;47.53;23.17;;;19.10;99.90;;;;;;8323679;28;20191;-80
2021/09/01 08:29:53;;;;;;;44.70;23.23;;;19.00;99.90;;;;;;8328937;28;20194;-78
2021/09/01 08:33:54;;;;;;;59.73;25.07;;;18.90;99.90;;;;;;8315570;28;20223;-79
2021/09/01 08:37:54;;;;;;;48.23;25.77;;;18.90;99.90;;;;;;8325304;28;20192;-80
2021/09/01 08:41:55;;;;;;;41.23;22.10;;;18.90;99.90;;;;;;8322005;28;20212;-80
2021/09/01 08:45:56;;;;;;;51.37;26.93;;;19.00;99.90;;;;;;8307162;28;20220;-79
2021/09/01 08:49:58;;;;;;;47.20;24.63;;;19.20;99.90;;;;;;8314886;28;20207;-82
2021/09/01 08:53:59;;;;;;;61.30;25.27;;;19.30;99.90;;;;;;8311587;28;20235;-81
2021/09/01 08:58:01;;;;;;;43.07;24.70;;;19.40;99.90;;;;;;8319175;28;20438;-79
2021/09/01 09:02:01;;;;;;;49.67;23.80;;;19.40;99.90;;;;;;8306289;28;20827;-80
2021/09/01 09:06:04;;;;;;;48.10;26.70;;;19.40;99.90;;;;;;8313614;28;20443;-80
2021/09/01 09:10:31;;;;;;;47.07;25.03;;;19.40;99.90;;;;;;8310707;28;20180;-85
2021/09/01 09:14:40;;;;;;;48.07;26.80;;;19.40;99.90;;;;;;8321063;28;20571;-79
2021/09/01 09:18:41;;;;;;;59.23;28.87;;;19.50;99.90;;;;;;8317529;28;20449;-85
2021/09/01 09:22:42;;;;;;;58.50;27.37;;;19.50;99.80;;;;;;8317313;28;20794;-80
2021/09/01 09:26:43;;;;;;;52.83;27.17;;;19.50;99.90;;;;;;8323706;28;20253;-84
2021/09/01 09:30:45;;;;;;;59.80;29.63;;;19.50;99.80;;;;;;8322457;28;20440;-83
2021/09/01 09:34:47;;;;;;;58.53;29.90;;;19.60;99.70;;;;;;8312225;28;20448;-83
2021/09/01 09:38:47;;;;;;;60.73;31.63;;;19.70;99.60;;;;;;8318349;28;20446;-80
2021/09/01 09:42:48;;;;;;;60.87;31.90;;;19.60;99.40;;;;;;8316013;28;20475;-83
2021/09/01 09:46:49;;;;;;;68.57;32.80;;;19.60;99.20;;;;;;8315218;28;20618;-80
2021/09/01 09:50:50;;;;;;;57.70;28.37;;;19.70;99.50;;;;;;8313611;28;20253;-81
2021/09/01 09:54:52;;;;;;;54.83;28.07;;;19.70;99.50;;;;;;8325797;28;20475;-78
2021/09/01 09:58:57;;;;;;;69.30;33.60;;;19.90;99.30;;;;;;8321473;28;20195;-82
2021/09/01 10:02:58;;;;;;;55.23;29.40;;;20.00;99.00;;;;;;8319961;28;20460;-79
2021/09/01 10:06:58;;;;;;;66.00;31.67;;;20.10;98.90;;;;;;8333108;28;20451;-84
2021/09/01 10:11:01;;;;;;;58.50;30.70;;;20.20;99.00;;;;;;8319488;28;20677;-79
2021/09/01 10:15:02;;;;;;;52.60;28.97;;;20.20;98.50;;;;;;8311426;28;20195;-82
2021/09/01 10:19:16;;;;;;;62.93;30.90;;;20.30;98.50;;;;;;8313958;28;20441;-80
2021/09/01 10:23:17;;;;;;;53.53;28.30;;;20.30;98.40;;;;;;8311892;28;20564;-82
2021/09/01 10:27:23;;;;;;;55.07;29.70;;;20.30;98.40;;;;;;8313335;28;20419;-84
2021/09/01 10:31:29;;;;;;;52.13;29.60;;;20.30;98.60;;;;;;8326285;28;20274;-80
2021/09/01 10:35:31;;;;;;;65.93;33.00;;;20.30;98.60;;;;;;8311150;28;20507;-82
2021/09/01 10:39:32;;;;;;;60.20;32.60;;;20.30;98.50;;;;;;8317372;28;20448;-80
2021/09/01 10:43:33;;;;;;;57.17;30.60;;;20.20;98.20;;;;;;8325918;28;20467;-79
2021/09/01 10:47:52;;;;;;;52.60;32.27;;;20.20;98.20;;;;;;8337343;28;20229;-78
2021/09/01 10:51:55;;;;;;;63.60;33.33;;;20.10;98.40;;;;;;8319920;28;20500;-81
2021/09/01 10:56:05;;;;;;;57.23;31.90;;;20.10;98.50;;;;;;8316147;28;20453;-78
2021/09/01 11:00:15;;;;;;;63.13;33.10;;;20.10;98.30;;;;;;8313575;28;20665;-77
2021/09/01 11:04:15;;;;;;;55.53;31.67;;;20.20;98.20;;;;;;8310475;28;20455;-82
2021/09/01 11:08:16;;;;;;;62.27;31.80;;;20.30;98.10;;;;;;8321088;28;20606;-80
2021/09/01 11:12:17;;;;;;;66.27;32.80;;;20.40;97.70;;;;;;8317358;28;20290;-80
2021/09/01 11:16:19;;;;;;;63.70;34.07;;;20.20;97.80;;;;;;8315234;28;20190;-80
2021/09/01 11:20:21;;;;;;;64.53;35.70;;;20.20;97.90;;;;;;8315628;28;20191;-83
2021/09/01 11:24:22;;;;;;;59.70;32.20;;;20.20;97.90;;;;;;8310213;28;20995;-79
2021/09/01 11:28:22;;;;;;;67.50;30.67;;;20.20;97.60;;;;;;8323802;28;20445;-81
2021/09/01 11:32:23;;;;;;;60.97;29.67;;;20.20;97.50;;;;;;8312930;28;20769;-80
2021/09/01 11:36:28;;;;;;;53.23;29.87;;;20.30;97.50;;;;;;8313213;28;20921;-86
2021/09/01 11:40:34;;;;;;;59.73;31.40;;;20.30;97.50;;;;;;8311270;28;20184;-81
2021/09/01 11:44:34;;;;;;;60.33;30.70;;;20.30;97.50;;;;;;8315773;28;20801;-78
2021/09/01 11:48:42;;;;;;;48.50;30.03;;;20.40;97.50;;;;;;8314014;28;20450;-85
2021/09/01 11:52:42;;;;;;;57.93;31.57;;;20.50;97.30;;;;;;8313909;28;20184;-80
2021/09/01 11:56:43;;;;;;;55.83;30.20;;;20.60;97.40;;;;;;8312692;28;20453;-84
2021/09/01 12:00:51;;;;;;;49.73;28.20;;;20.90;97.00;;;;;;8314315;28;20183;-84
2021/09/01 12:04:52;;;;;;;59.60;30.83;;;21.00;96.60;;;;;;8320499;28;20187;-80
2021/09/01 12:08:53;;;;;;;61.43;31.80;;;21.20;96.20;;;;;;8310779;28;20583;-83
2021/09/01 12:13:00;;;;;;;67.90;32.37;;;21.20;96.10;;;;;;8319237;28;20447;-81
2021/09/01 12:17:23;;;;;;;54.17;30.67;;;21.20;96.00;;;;;;8319241;28;20850;-84
2021/09/01 12:21:40;;;;;;;58.70;34.47;;;21.10;96.20;;;;;;8316377;28;20455;-82
2021/09/01 12:25:41;;;;;;;60.63;31.10;;;21.00;96.10;;;;;;8318307;28;21353;-86
2021/09/01 12:29:51;;;;;;;60.53;30.83;;;21.10;96.10;;;;;;8316915;28;20454;-81
2021/09/01 12:33:51;;;;;;;58.10;31.80;;;21.10;96.10;;;;;;8320618;28;20595;-79
2021/09/01 12:38:00;;;;;;;59.90;34.77;;;21.00;95.80;;;;;;8333499;28;20449;-83
2021/09/01 12:42:00;;;;;;;66.73;32.83;;;20.90;95.60;;;;;;8325798;28;20195;-84
2021/09/01 12:46:02;;;;;;;67.80;33.67;;;20.90;95.70;;;;;;8320410;28;20459;-76
2021/09/01 12:50:04;;;;;;;64.53;32.97;;;20.80;96.00;;;;;;8330721;28;20677;-83
2021/09/01 12:54:05;;;;;;;60.03;31.90;;;20.90;96.30;;;;;;8322446;28;20577;-82
2021/09/01 12:58:05;;;;;;;58.63;33.57;;;20.90;96.00;;;;;;8323453;28;20412;-80
2021/09/01 13:02:09;;;;;;;54.67;30.50;;;21.00;95.90;;;;;;8318307;28;20601;-82
2021/09/01 13:06:09;;;;;;;58.67;30.73;;;20.90;95.80;;;;;;8313686;28;20191;-75
2021/09/01 13:10:10;;;;;;;53.37;28.23;;;20.90;96.00;;;;;;8304531;28;20445;-80
2021/09/01 13:14:11;;;;;;;56.27;25.63;;;21.00;96.20;;;;;;8308958;28;20660;-82
2021/09/01 13:18:11;;;;;;;45.47;25.27;;;21.30;95.90;;;;;;8315753;28;20333;-82
2021/09/01 13:22:13;;;;;;;53.13;27.97;;;21.40;95.80;;;;;;8313856;28;20231;-80
2021/09/01 13:26:14;;;;;;;49.53;27.73;;;21.50;95.20;;;;;;8331172;28;20188;-78
2021/09/01 13:30:15;;;;;;;47.27;27.90;;;21.60;95.40;;;;;;8305171;28;20439;-79
2021/09/01 13:34:16;;;;;;;52.93;30.47;;;21.70;95.20;;;;;;8311307;28;20230;-78
2021/09/01 13:38:16;;;;;;;63.87;33.47;;;21.80;94.60;;;;;;8309649;28;20438;-76
2021/09/01 13:42:17;;;;;;;57.10;29.10;;;21.90;94.10;;;;;;8316581;28;20615;-80
2021/09/01 13:46:20;;;;;;;64.17;36.03;;;21.90;94.20;;;;;;8299365;28;20188;-78
2021/09/01 13:50:21;;;;;;;68.70;35.90;;;21.90;93.40;;;;;;8309795;28;20479;-82
2021/09/01 13:54:23;;;;;;;66.97;37.10;;;22.00;93.40;;;;;;8312296;28;20928;-84
2021/09/01 13:58:24;;;;;;;65.23;35.63;;;22.00;93.20;;;;;;8307470;28;20191;-78
2021/09/01 14:02:24;;;;;;;62.33;34.60;;;22.10;93.50;;;;;;8299536;28;20464;-81
2021/09/01 14:06:25;;;;;;;72.57;37.00;;;22.10;93.30;;;;;;8300899;28;20191;-79
2021/09/01 14:10:26;;;;;;;64.70;36.23;;;22.10;93.10;;;;;;8302153;28;20184;-83
2021/09/01 14:14:26;;;;;;;66.50;38.80;;;22.10;93.00;;;;;;8308854;28;20192;-80
2021/09/01 14:18:27;;;;;;;73.93;37.20;;;22.10;93.00;;;;;;8313111;28;20180;-80
2021/09/01 14:22:28;;;;;;;68.97;34.67;;;22.00;93.20;;;;;;8305468;28;20295;-82
2021/09/01 14:26:29;;;;;;;61.47;35.27;;;21.90;93.20;;;;;;8304755;28;20798;-79
2021/09/01 14:30:29;;;;;;;57.43;32.07;;;22.00;93.10;;;;;;8310717;28;20183;-79
2021/09/01 14:34:30;;;;;;;54.93;33.80;;;22.10;92.60;;;;;;8303719;28;20314;-84
2021/09/01 14:38:31;;;;;;;56.97;32.17;;;22.10;92.70;;;;;;8314462;28;20275;-81
2021/09/01 14:42:31;;;;;;;57.70;31.90;;;22.10;92.20;;;;;;8304650;28;20211;-80
2021/09/01 14:46:32;;;;;;;55.53;30.73;;;22.00;92.30;;;;;;8308964;28;20424;-79
2021/09/01 14:50:33;;;;;;;62.97;33.00;;;22.10;92.50;;;;;;8311546;28;20191;-84
2021/09/01 14:54:34;;;;;;;54.37;31.10;;;22.30;92.20;;;;;;8310961;28;20192;-80
2021/09/01 14:58:34;;;;;;;48.33;28.43;;;22.70;92.50;;;;;;8315327;28;20489;-82
2021/09/01 15:02:35;;;;;;;46.30;27.67;;;22.90;92.10;;;;;;8334537;28;20231;-81
2021/09/01 15:06:36;;;;;;;52.87;27.47;;;22.90;92.00;;;;;;8325148;28;20199;-76
2021/09/01 15:10:36;;;;;;;54.23;28.80;;;23.00;91.40;;;;;;8323247;28;20188;-79
2021/09/01 15:14:37;;;;;;;47.87;28.57;;;23.10;91.30;;;;;;8318732;28;20218;-78
2021/09/01 15:18:38;;;;;;;44.57;25.47;;;23.10;91.30;;;;;;8312823;28;20539;-78
2021/09/01 15:22:39;;;;;;;44.80;24.07;;;23.20;91.50;;;;;;8312417;28;20254;-79
2021/09/01 15:26:40;;;;;;;43.70;27.63;;;23.30;91.70;;;;;;8310633;28;20424;-80
2021/09/01 15:30:41;;;;;;;51.60;26.03;;;23.20;91.60;;;;;;8314511;28;20597;-83
2021/09/01 15:34:44;;;;;;;50.83;27.90;;;23.00;91.80;;;;;;8306102;28;20234;-79
2021/09/01 15:38:45;;;;;;;51.43;28.60;;;22.60;92.60;;;;;;8318315;28;21338;-79
2021/09/01 15:42:49;;;;;;;53.67;30.10;;;22.10;92.70;;;;;;8306518;28;20449;-81
2021/09/01 15:46:57;;;;;;;52.30;28.20;;;21.80;93.30;;;;;;8316337;28;20180;-79
2021/09/01 15:50:58;;;;;;;50.07;28.60;;;21.50;93.90;;;;;;8315989;28;20436;-78
2021/09/01 15:55:02;;;;;;;54.80;30.10;;;21.30;94.30;;;;;;8313196;28;20450;-79
2021/09/01 15:59:04;;;;;;;50.93;26.77;;;21.10;94.10;;;;;;8323579;28;20703;-80
2021/09/01 16:03:09;;;;;;;48.53;27.53;;;21.10;94.30;;;;;;8325237;28;20505;-79
2021/09/01 16:07:12;;;;;;;57.67;28.53;;;21.00;94.30;;;;;;8314438;28;20555;-78
2021/09/01 16:11:15;;;;;;;59.47;30.30;;;20.90;94.50;;;;;;8322216;28;20576;-79
2021/09/01 16:15:22;;;;;;;54.47;27.33;;;20.90;94.20;;;;;;8325528;28;21005;-77
2021/09/01 16:19:43;;;;;;;59.70;25.90;;;20.80;94.50;;;;;;8322505;28;20455;-81
2021/09/01 16:23:47;;;;;;;55.30;29.27;;;20.80;94.70;;;;;;8330632;28;20492;-80
2021/09/01 16:27:50;;;;;;;59.10;28.17;;;20.80;95.00;;;;;;8322890;28;21139;-78
2021/09/01 16:31:50;;;;;;;48.07;29.50;;;20.70;94.70;;;;;;8319693;28;20978;-80
2021/09/01 16:35:52;;;;;;;61.77;29.37;;;20.60;94.60;;;;;;8334379;28;20448;-79
2021/09/01 16:39:53;;;;;;;49.67;26.00;;;20.60;95.00;;;;;;8329740;28;20618;-82
2021/09/01 16:43:55;;;;;;;56.07;26.57;;;20.60;95.20;;;;;;8328503;28;20790;-78
2021/09/01 16:47:56;;;;;;;60.13;29.03;;;20.40;95.10;;;;;;8317928;28;20448;-79
2021/09/01 16:52:08;;;;;;;53.03;25.97;;;20.30;95.20;;;;;;8322389;28;20450;-79
2021/09/01 16:56:17;;;;;;;46.47;25.97;;;20.20;95.50;;;;;;8320701;28;20441;-79
2021/09/01 17:00:18;;;;;;;55.73;27.50;;;20.20;95.70;;;;;;8344824;28;20504;-80
2021/09/01 17:04:23;;;;;;;47.93;26.40;;;20.10;96.00;;;;;;8322744;28;20569;-82
2021/09/01 17:08:27;;;;;;;47.30;26.43;;;20.00;96.00;;;;;;8339868;28;20306;-80
2021/09/01 17:12:31;;;;;;;46.90;26.77;;;19.90;96.10;;;;;;8319418;28;20447;-81
2021/09/01 17:16:32;;;;;;;47.13;25.07;;;19.80;96.30;;;;;;8327988;28;20484;-79
2021/09/01 17:20:34;;;;;;;61.23;28.20;;;19.70;96.60;;;;;;8326874;28;20438;-80
2021/09/01 17:24:37;;;;;;;47.17;25.40;;;19.70;96.80;;;;;;8337103;28;20470;-82
2021/09/01 17:28:50;;;;;;;47.10;27.40;;;19.60;97.00;;;;;;8329560;28;20446;-80
2021/09/01 17:32:56;;;;;;;51.63;27.87;;;19.60;96.90;;;;;;8326402;28;20524;-78
2021/09/01 17:37:01;;;;;;;53.37;26.93;;;19.60;97.10;;;;;;8321608;28;20574;-81
2021/09/01 17:41:02;;;;;;;51.73;25.73;;;19.40;97.20;;;;;;8315586;28;20468;-80
2021/09/01 17:45:03;;;;;;;51.53;27.10;;;19.30;97.30;;;;;;8322867;28;20478;-76
2021/09/01 17:49:04;;;;;;;48.10;25.07;;;19.20;97.40;;;;;;8322696;28;20713;-83
2021/09/01 17:53:04;;;;;;;55.13;29.73;;;19.10;97.40;;;;;;8263115;28;20446;-81
2021/09/01 17:57:05;;;;;;;45.73;27.77;;;19.00;97.50;;;;;;3621041;28;10002028;-82
2021/09/01 18:01:07;;;;;;;52.33;28.37;;;18.90;97.80;;;;;;8321321;28;20449;-80
2021/09/01 18:05:08;;;;;;;56.80;28.37;;;18.90;98.20;;;;;;8326250;28;20607;-83
2021/09/01 18:09:09;;;;;;;55.33;30.80;;;18.80;98.30;;;;;;8329839;28;20533;-82
2021/09/01 18:13:11;;;;;;;61.47;31.40;;;18.70;98.40;;;;;;8316047;28;20470;-83
2021/09/01 18:17:14;;;;;;;56.63;30.87;;;18.70;98.70;;;;;;8324792;28;20537;-82
2021/09/01 18:21:15;;;;;;;61.13;30.63;;;18.60;98.60;;;;;;8323569;28;20192;-81
2021/09/01 18:25:16;;;;;;;70.93;33.93;;;18.60;98.70;;;;;;8316556;28;20451;-78
2021/09/01 18:29:16;;;;;;;74.60;36.10;;;18.60;98.70;;;;;;8313374;28;20184;-81
2021/09/01 18:33:17;;;;;;;64.13;32.10;;;18.50;98.60;;;;;;8309194;28;20476;-77
2021/09/01 18:37:20;;;;;;;72.00;35.23;;;18.50;98.80;;;;;;8310926;28;20541;-78
2021/09/01 18:41:26;;;;;;;78.93;37.30;;;18.40;99.30;;;;;;8305741;28;20461;-80
2021/09/01 18:45:28;;;;;;;72.93;32.93;;;18.40;99.60;;;;;;8316335;28;20463;-80
2021/09/01 18:49:28;;;;;;;69.23;31.50;;;18.30;99.70;;;;;;8299673;28;20443;-78
2021/09/01 18:53:30;;;;;;;68.87;33.03;;;18.20;99.80;;;;;;8317299;28;20971;-77
2021/09/01 18:57:31;;;;;;;81.47;36.53;;;18.00;99.90;;;;;;8316777;28;20203;-81
2021/09/01 19:01:34;;;;;;;79.50;35.40;;;17.90;99.90;;;;;;8324746;28;20806;-77
2021/09/01 19:05:46;;;;;;;79.20;37.23;;;17.70;99.90;;;;;;8311423;28;20547;-79
2021/09/01 19:09:56;;;;;;;77.73;36.90;;;17.60;99.90;;;;;;8310444;28;20797;-78
2021/09/01 19:14:02;;;;;;;85.33;35.57;;;17.40;99.90;;;;;;8318229;28;20544;-83
2021/09/01 19:18:03;;;;;;;75.30;33.60;;;17.30;99.90;;;;;;8318034;28;20474;-81
2021/09/01 19:22:04;;;;;;;81.30;36.93;;;17.10;99.90;;;;;;8316448;28;20494;-79
2021/09/01 19:26:05;;;;;;;73.13;33.77;;;17.00;99.90;;;;;;8324793;28;20442;-81
2021/09/01 19:30:11;;;;;;;84.43;35.73;;;16.90;99.90;;;;;;8323854;28;20188;-79
2021/09/01 19:34:18;;;;;;;79.77;35.63;;;16.70;99.90;;;;;;8313379;28;20229;-82
2021/09/01 19:38:19;;;;;;;81.93;39.17;;;16.60;99.90;;;;;;8339613;28;20438;-78
2021/09/01 19:42:20;;;;;;;93.00;36.57;;;16.50;99.90;;;;;;8330602;28;20614;-77
2021/09/01 19:46:20;;;;;;;88.60;39.17;;;16.50;99.90;;;;;;8326346;28;20746;-77
2021/09/01 19:50:21;;;;;;;88.03;43.73;;;16.40;99.90;;;;;;8326489;28;20529;-78
2021/09/01 19:54:22;;;;;;;88.03;38.50;;;16.40;99.90;;;;;;8328077;28;20192;-79
2021/09/01 19:58:23;;;;;;;86.63;40.20;;;16.30;99.90;;;;;;8320407;28;20545;-77
2021/09/01 20:02:25;;;;;;;83.93;39.30;;;16.20;99.90;;;;;;8325358;28;20470;-79
2021/09/01 20:06:29;;;;;;;94.83;37.53;;;16.10;99.90;;;;;;8326134;28;20275;-79
2021/09/01 20:10:30;;;;;;;74.50;36.20;;;16.00;99.90;;;;;;8329375;28;20446;-80
2021/09/01 20:14:31;;;;;;;81.73;35.23;;;15.90;99.90;;;;;;8324668;28;20957;-77
2021/09/01 20:18:33;;;;;;;81.03;38.30;;;15.80;99.90;;;;;;8333396;28;20445;-80
2021/09/01 20:22:34;;;;;;;81.03;35.47;;;15.70;99.90;;;;;;8325314;28;20687;-79
2021/09/01 20:26:36;;;;;;;70.50;35.67;;;15.50;99.90;;;;;;8329046;28;20445;-77
2021/09/01 20:30:36;;;;;;;92.00;43.10;;;15.40;99.90;;;;;;8325594;28;20921;-77
2021/09/01 20:34:37;;;;;;;101.83;42.90;;;15.40;99.90;;;;;;8324124;28;20520;-78
2021/09/01 20:38:42;;;;;;;107.27;46.20;;;15.30;99.90;;;;;;8322626;28;20183;-78
2021/09/01 20:42:46;;;;;;;82.53;38.60;;;15.30;99.90;;;;;;8330092;28;20215;-80
2021/09/01 20:46:55;;;;;;;87.77;38.40;;;15.20;99.90;;;;;;8332371;28;20831;-80
2021/09/01 20:50:58;;;;;;;98.73;39.63;;;15.10;99.90;;;;;;8326653;28;20439;-78
2021/09/01 20:55:00;;;;;;;107.47;45.67;;;15.10;99.90;;;;;;8335364;28;20449;-78
2021/09/01 20:59:01;;;;;;;87.30;40.60;;;15.00;99.90;;;;;;8329279;28;20555;-77
2021/09/01 21:03:03;;;;;;;106.13;44.77;;;14.90;99.90;;;;;;8329756;28;20469;-78
2021/09/01 21:07:04;;;;;;;96.47;40.93;;;14.90;99.90;;;;;;8320900;28;20548;-77
2021/09/01 21:11:05;;;;;;;96.30;38.80;;;14.80;99.90;;;;;;8325266;28;20438;-79